createdAt,value
2023-03-23T00:06:19.437Z,47.1
2023-03-23T00:13:51.851Z,47.1
2023-03-23T00:21:24.340Z,47.0
2023-03-23T00:28:56.797Z,47.0
2023-03-23T00:36:29.196Z,47.0
2023-03-23T00:44:01.600Z,46.9
2023-03-23T00:51:34.002Z,46.9
2023-03-23T00:59:06.421Z,46.9
2023-03-23T01:06:41.147Z,46.8
2023-03-23T01:14:13.548Z,46.8
2023-03-23T01:21:45.983Z,46.8
2023-03-23T01:29:18.412Z,46.8
2023-03-23T01:36:50.852Z,46.7
2023-03-23T01:44:23.279Z,46.7
2023-03-23T01:51:55.702Z,46.8
2023-03-23T01:59:28.137Z,46.6
2023-03-23T02:07:00.562Z,46.6
2023-03-23T02:14:32.965Z,46.6
2023-03-23T02:22:05.390Z,46.6
2023-03-23T02:29:37.809Z,46.5
2023-03-23T02:37:10.242Z,46.4
2023-03-23T02:44:42.655Z,46.4
2023-03-23T02:52:15.068Z,46.4
2023-03-23T02:59:47.692Z,46.4
2023-03-23T03:07:20.110Z,46.4
2023-03-23T03:14:52.835Z,46.3
2023-03-23T03:22:25.256Z,46.2
2023-03-23T03:29:57.672Z,46.2
2023-03-23T03:37:30.153Z,46.1
2023-03-23T03:45:02.584Z,46.1
2023-03-23T03:52:34.989Z,46.1
2023-03-23T04:00:07.417Z,46.1
2023-03-23T04:07:39.868Z,46.0
2023-03-23T04:15:12.689Z,46.0
2023-03-23T04:16:07.359Z,46.0
2023-03-23T04:16:57.536Z,46.0
2023-03-23T04:24:56.282Z,45.9
2023-03-23T04:32:13.541Z,45.5
2023-03-23T04:39:45.958Z,45.5
2023-03-23T04:47:18.569Z,45.6
2023-03-23T04:54:50.998Z,45.6
2023-03-23T05:02:23.414Z,46.1
2023-03-23T05:10:01.778Z,45.7
2023-03-23T05:17:34.212Z,45.6
2023-03-23T05:21:46.609Z,45.7
2023-03-23T05:22:34.029Z,45.6
2023-03-23T05:23:21.465Z,45.7
2023-03-23T05:24:08.908Z,45.7
2023-03-23T05:24:56.324Z,45.6
2023-03-23T05:25:43.867Z,45.6
2023-03-23T05:26:32.419Z,45.5
2023-03-23T05:27:19.908Z,45.5
2023-03-23T05:28:07.434Z,45.5
2023-03-23T05:28:54.844Z,45.5
2023-03-23T05:29:49.808Z,45.5
2023-03-23T05:30:37.253Z,46.0
2023-03-23T05:31:24.680Z,45.5
2023-03-23T05:32:12.093Z,45.5
2023-03-23T05:32:59.514Z,45.5
2023-03-23T05:33:46.921Z,45.5
2023-03-23T05:34:34.334Z,45.4
2023-03-23T05:35:21.746Z,45.4
2023-03-23T05:36:09.233Z,45.4
2023-03-23T05:36:56.636Z,45.4
2023-03-23T05:37:44.044Z,45.4
2023-03-23T05:38:31.475Z,45.3
2023-03-23T05:39:18.905Z,45.3
2023-03-23T05:40:06.349Z,45.2
2023-03-23T05:40:53.757Z,45.2
2023-03-23T05:41:41.179Z,45.2
2023-03-23T05:42:28.681Z,45.2
2023-03-23T05:43:16.105Z,45.2
2023-03-23T05:44:03.531Z,45.2
2023-03-23T05:44:50.946Z,45.2
2023-03-23T05:45:38.348Z,45.1
2023-03-23T05:46:25.783Z,45.2
2023-03-23T05:47:13.225Z,45.2
2023-03-23T05:48:00.650Z,45.2
2023-03-23T05:48:48.057Z,45.2
2023-03-23T05:49:35.495Z,45.2
2023-03-23T05:50:22.937Z,45.2
2023-03-23T05:51:10.376Z,45.2
2023-03-23T05:51:57.785Z,45.2
2023-03-23T05:52:45.233Z,45.2
2023-03-23T05:53:32.961Z,45.2
2023-03-23T05:54:20.506Z,45.2
2023-03-23T05:55:08.100Z,45.3
2023-03-23T05:55:55.548Z,45.5
2023-03-23T05:56:42.953Z,45.5
2023-03-23T05:57:30.406Z,45.5
2023-03-23T05:58:17.805Z,45.7
2023-03-23T05:59:05.251Z,45.5
2023-03-23T05:59:52.746Z,45.6
2023-03-23T06:00:40.237Z,45.6
2023-03-23T06:01:27.743Z,45.6
2023-03-23T06:02:15.508Z,45.6
2023-03-23T06:03:03.127Z,45.6
2023-03-23T06:03:50.592Z,45.5
2023-03-23T06:04:38.266Z,45.5
2023-03-23T06:05:25.749Z,45.5
2023-03-23T06:06:13.376Z,45.6
2023-03-23T06:07:00.864Z,45.5
2023-03-23T06:07:48.273Z,45.5
2023-03-23T06:08:35.729Z,45.6
2023-03-23T06:09:23.147Z,45.6
2023-03-23T06:10:10.570Z,45.6
2023-03-23T06:10:57.989Z,45.7
2023-03-23T06:11:45.417Z,45.7
2023-03-23T06:12:32.821Z,45.6
2023-03-23T06:13:20.317Z,45.6
2023-03-23T06:14:07.730Z,45.5
2023-03-23T06:14:55.155Z,45.5
2023-03-23T06:15:43.208Z,45.5
2023-03-23T06:16:30.806Z,45.8
2023-03-23T06:17:18.250Z,45.2
2023-03-23T06:18:05.663Z,45.1
2023-03-23T06:18:53.072Z,45.1
2023-03-23T06:19:40.467Z,45.0
2023-03-23T06:20:27.989Z,45.0
2023-03-23T06:21:18.455Z,45.0
2023-03-23T06:22:06.046Z,45.0
2023-03-23T06:22:53.466Z,44.9
2023-03-23T06:23:40.897Z,45.0
2023-03-23T06:24:28.540Z,44.9
2023-03-23T06:25:15.977Z,44.9
2023-03-23T06:26:04.495Z,44.9
2023-03-23T06:26:52.605Z,44.9
2023-03-23T06:27:40.049Z,44.8
2023-03-23T06:28:27.480Z,44.8
2023-03-23T06:29:14.916Z,44.8
2023-03-23T06:30:02.348Z,44.9
2023-03-23T06:30:49.775Z,45.0
2023-03-23T06:31:37.231Z,45.0
2023-03-23T06:32:29.469Z,44.9
2023-03-23T06:33:17.870Z,44.9
2023-03-23T06:34:06.910Z,44.9
2023-03-23T06:34:54.321Z,44.9
2023-03-23T06:35:42.155Z,44.9
2023-03-23T06:36:29.647Z,44.9
2023-03-23T06:37:17.075Z,45.0
2023-03-23T06:38:11.828Z,45.1
2023-03-23T06:38:59.239Z,45.5
2023-03-23T06:39:46.640Z,45.4
2023-03-23T06:40:34.039Z,45.3
2023-03-23T06:41:21.454Z,45.2
2023-03-23T06:42:08.864Z,45.4
2023-03-23T06:42:56.302Z,45.5
2023-03-23T06:43:43.708Z,45.5
2023-03-23T06:44:31.131Z,45.4
2023-03-23T06:45:18.572Z,45.3
2023-03-23T06:46:05.998Z,45.4
2023-03-23T06:46:53.435Z,45.5
2023-03-23T06:47:40.852Z,45.8
2023-03-23T06:48:28.274Z,45.4
2023-03-23T06:49:15.706Z,45.3
2023-03-23T06:50:03.120Z,45.2
2023-03-23T06:50:50.584Z,45.3
2023-03-23T06:51:38.021Z,45.6
2023-03-23T06:52:25.451Z,45.5
2023-03-23T06:53:12.892Z,45.3
2023-03-23T06:54:00.314Z,45.3
2023-03-23T06:54:47.721Z,45.2
2023-03-23T06:55:35.173Z,45.3
2023-03-23T06:56:22.585Z,45.1
2023-03-23T06:57:09.990Z,45.2
2023-03-23T06:57:57.439Z,45.3
2023-03-23T06:58:44.874Z,45.2
2023-03-23T06:59:32.313Z,45.3
2023-03-23T07:00:19.747Z,45.4
2023-03-23T07:01:07.150Z,45.3
2023-03-23T07:01:54.573Z,45.2
2023-03-23T07:02:42.024Z,45.3
2023-03-23T07:03:29.437Z,45.2
2023-03-23T07:04:16.844Z,45.2
2023-03-23T07:05:04.268Z,45.2
2023-03-23T07:05:51.678Z,45.2
2023-03-23T07:06:39.086Z,45.2
2023-03-23T07:07:26.553Z,45.3
2023-03-23T07:08:13.971Z,45.3
2023-03-23T07:09:01.405Z,45.2
2023-03-23T07:09:49.091Z,45.2
2023-03-23T07:10:36.831Z,45.1
2023-03-23T07:11:24.231Z,45.0
2023-03-23T07:12:11.692Z,45.1
2023-03-23T07:12:59.192Z,45.2
2023-03-23T07:13:46.608Z,45.0
2023-03-23T07:14:34.027Z,45.0
2023-03-23T07:15:21.436Z,45.0
2023-03-23T07:16:10.678Z,44.9
2023-03-23T07:16:58.202Z,44.9
2023-03-23T07:17:45.643Z,44.9
2023-03-23T07:18:33.067Z,45.0
2023-03-23T07:19:20.484Z,45.0
2023-03-23T07:20:07.904Z,45.2
2023-03-23T07:20:55.343Z,45.2
2023-03-23T07:21:42.876Z,45.2
2023-03-23T07:22:30.296Z,45.2
2023-03-23T07:23:17.736Z,45.3
2023-03-23T07:24:05.137Z,45.2
2023-03-23T07:24:52.622Z,45.2
2023-03-23T07:25:40.555Z,45.1
2023-03-23T07:26:28.245Z,45.1
2023-03-23T07:27:15.642Z,45.0
2023-03-23T07:28:03.087Z,44.9
2023-03-23T07:28:50.524Z,44.8
2023-03-23T07:29:37.940Z,44.9
2023-03-23T07:30:25.385Z,44.9
2023-03-23T07:31:16.846Z,44.9
2023-03-23T07:32:04.266Z,44.8
2023-03-23T07:32:51.688Z,44.8
2023-03-23T07:33:39.107Z,44.7
2023-03-23T07:34:26.509Z,44.8
2023-03-23T07:35:13.931Z,44.8
2023-03-23T07:36:01.422Z,44.8
2023-03-23T07:36:48.890Z,44.8
2023-03-23T07:37:36.292Z,44.8
2023-03-23T07:38:23.810Z,44.9
2023-03-23T07:39:11.254Z,44.9
2023-03-23T07:39:58.672Z,44.9
2023-03-23T07:40:46.096Z,44.9
2023-03-23T07:41:33.510Z,44.9
2023-03-23T07:42:21.121Z,44.8
2023-03-23T07:43:08.555Z,44.9
2023-03-23T07:43:55.990Z,44.9
2023-03-23T07:44:43.869Z,44.9
2023-03-23T07:45:32.243Z,44.9
2023-03-23T07:46:19.673Z,44.9
2023-03-23T07:47:07.133Z,44.8
2023-03-23T07:47:54.604Z,44.8
2023-03-23T07:48:42.062Z,44.8
2023-03-23T07:49:29.472Z,44.8
2023-03-23T07:50:22.313Z,44.8
2023-03-23T07:51:09.732Z,45.0
2023-03-23T07:51:57.155Z,45.0
2023-03-23T07:52:44.566Z,44.9
2023-03-23T07:53:32.058Z,45.0
2023-03-23T07:54:19.510Z,45.0
2023-03-23T07:55:06.916Z,45.0
2023-03-23T07:55:54.344Z,45.0
2023-03-23T07:56:41.779Z,45.0
2023-03-23T07:57:29.185Z,45.1
2023-03-23T07:58:16.636Z,45.0
2023-03-23T07:59:04.050Z,45.0
2023-03-23T07:59:51.498Z,45.0
2023-03-23T08:00:38.963Z,45.0
2023-03-23T08:01:26.373Z,44.9
2023-03-23T08:02:13.788Z,44.9
2023-03-23T08:03:01.205Z,44.9
2023-03-23T08:03:48.677Z,44.9
2023-03-23T08:04:36.137Z,44.8
2023-03-23T08:05:23.593Z,44.8
2023-03-23T08:06:11.016Z,44.8
2023-03-23T08:06:58.438Z,44.8
2023-03-23T08:07:45.871Z,44.8
2023-03-23T08:08:33.310Z,44.8
2023-03-23T08:09:20.729Z,44.8
2023-03-23T08:10:08.201Z,44.7
2023-03-23T08:10:55.639Z,44.7
2023-03-23T08:11:43.605Z,44.6
2023-03-23T08:12:31.019Z,44.6
2023-03-23T08:13:18.535Z,44.5
2023-03-23T08:14:05.984Z,44.5
2023-03-23T08:14:53.397Z,44.5
2023-03-23T08:15:41.099Z,44.5
2023-03-23T08:16:28.641Z,44.6
2023-03-23T08:17:16.187Z,44.6
2023-03-23T08:18:03.615Z,44.6
2023-03-23T08:18:51.074Z,44.6
2023-03-23T08:19:38.543Z,44.7
2023-03-23T08:20:26.179Z,44.7
2023-03-23T08:21:13.643Z,44.8
2023-03-23T08:22:01.077Z,44.8
2023-03-23T08:22:53.250Z,45.0
2023-03-23T08:23:40.971Z,44.9
2023-03-23T08:24:28.400Z,45.0
2023-03-23T08:25:15.844Z,45.0
2023-03-23T08:26:03.248Z,45.0
2023-03-23T08:26:50.672Z,45.0
2023-03-23T08:27:38.078Z,45.0
2023-03-23T08:28:25.486Z,45.0
2023-03-23T08:29:12.929Z,45.0
2023-03-23T08:30:00.435Z,45.0
2023-03-23T08:30:47.847Z,45.0
2023-03-23T08:31:35.284Z,45.1
2023-03-23T08:32:22.722Z,45.1
2023-03-23T08:33:10.124Z,45.0
2023-03-23T08:33:57.557Z,45.0
2023-03-23T08:34:44.998Z,45.1
2023-03-23T08:35:32.450Z,45.0
2023-03-23T08:36:19.894Z,45.0
2023-03-23T08:37:07.573Z,44.9
2023-03-23T08:37:54.988Z,44.9
2023-03-23T08:38:43.357Z,45.0
2023-03-23T08:39:30.926Z,45.0
2023-03-23T08:40:18.462Z,45.1
2023-03-23T08:41:05.894Z,45.0
2023-03-23T08:41:53.313Z,44.9
2023-03-23T08:42:42.362Z,44.4
2023-03-23T08:43:31.205Z,44.1
2023-03-23T08:44:19.026Z,44.2
2023-03-23T08:45:06.668Z,44.3
2023-03-23T08:45:54.299Z,44.3
2023-03-23T08:46:41.731Z,44.4
2023-03-23T08:47:29.133Z,44.5
2023-03-23T08:48:16.585Z,44.6
2023-03-23T08:49:03.996Z,44.7
2023-03-23T08:49:51.447Z,44.8
2023-03-23T08:50:38.898Z,45.0
2023-03-23T08:51:26.307Z,45.0
2023-03-23T08:52:13.753Z,45.1
2023-03-23T08:53:01.465Z,45.2
2023-03-23T08:53:48.948Z,45.2
2023-03-23T08:54:36.357Z,45.2
2023-03-23T08:55:23.796Z,45.1
2023-03-23T08:56:11.242Z,45.1
2023-03-23T08:56:58.652Z,45.2
2023-03-23T08:57:46.091Z,45.1
2023-03-23T08:58:33.501Z,45.1
2023-03-23T08:59:20.926Z,45.2
2023-03-23T09:00:08.426Z,45.2
2023-03-23T09:00:55.844Z,45.1
2023-03-23T09:01:43.285Z,45.1
2023-03-23T09:02:36.740Z,45.3
2023-03-23T09:03:24.188Z,45.2
2023-03-23T09:04:11.607Z,45.2
2023-03-23T09:04:59.575Z,45.2
2023-03-23T09:05:46.975Z,45.3
2023-03-23T09:06:34.460Z,45.3
2023-03-23T09:07:21.888Z,45.4
2023-03-23T09:08:09.340Z,45.4
2023-03-23T09:08:56.763Z,45.4
2023-03-23T09:09:47.273Z,45.5
2023-03-23T09:10:34.737Z,45.5
2023-03-23T09:11:22.143Z,45.4
2023-03-23T09:12:09.606Z,45.4
2023-03-23T09:12:57.021Z,45.4
2023-03-23T09:13:44.460Z,45.2
2023-03-23T09:14:31.902Z,45.2
2023-03-23T09:15:23.957Z,45.1
2023-03-23T09:16:16.718Z,45.2
2023-03-23T09:17:04.164Z,45.2
2023-03-23T09:17:51.568Z,45.2
2023-03-23T09:18:38.991Z,45.1
2023-03-23T09:19:26.408Z,45.2
2023-03-23T09:20:13.840Z,45.2
2023-03-23T09:21:01.770Z,45.2
2023-03-23T09:21:49.209Z,45.2
2023-03-23T09:22:36.699Z,45.1
2023-03-23T09:23:24.148Z,45.1
2023-03-23T09:24:11.554Z,45.2
2023-03-23T09:24:59.023Z,45.2
2023-03-23T09:25:46.454Z,45.3
2023-03-23T09:26:33.868Z,45.3
2023-03-23T09:27:21.285Z,45.2
2023-03-23T09:28:08.918Z,45.3
2023-03-23T09:28:56.322Z,45.2
2023-03-23T09:29:43.732Z,45.2
2023-03-23T09:30:31.148Z,45.3
2023-03-23T09:31:19.936Z,45.2
2023-03-23T09:32:08.010Z,44.7
2023-03-23T09:32:55.435Z,45.2
2023-03-23T09:33:46.973Z,45.2
2023-03-23T09:34:34.630Z,45.3
2023-03-23T09:35:22.081Z,45.4
2023-03-23T09:36:09.596Z,45.4
2023-03-23T09:36:57.304Z,45.2
2023-03-23T09:37:44.711Z,45.2
2023-03-23T09:38:32.158Z,45.2
2023-03-23T09:39:19.583Z,45.2
2023-03-23T09:40:07.221Z,45.3
2023-03-23T09:40:54.970Z,45.4
2023-03-23T09:41:42.458Z,45.5
2023-03-23T09:42:29.868Z,45.5
2023-03-23T09:43:17.283Z,45.6
2023-03-23T09:44:04.732Z,45.7
2023-03-23T09:44:52.154Z,45.7
2023-03-23T09:45:39.737Z,45.5
2023-03-23T09:46:27.470Z,45.6
2023-03-23T09:47:14.884Z,45.8
2023-03-23T09:48:02.297Z,45.9
2023-03-23T09:48:49.776Z,46.0
2023-03-23T09:49:42.387Z,46.1
2023-03-23T09:50:29.919Z,46.2
2023-03-23T09:51:17.348Z,46.1
2023-03-23T09:52:04.753Z,45.9
2023-03-23T09:52:52.199Z,45.3
2023-03-23T09:53:39.622Z,45.0
2023-03-23T09:54:27.064Z,45.2
2023-03-23T09:55:14.523Z,45.4
2023-03-23T09:56:01.937Z,45.5
2023-03-23T09:56:49.386Z,45.6
2023-03-23T09:57:36.853Z,45.7
2023-03-23T09:58:24.267Z,45.7
2023-03-23T09:59:11.700Z,46.2
2023-03-23T09:59:59.252Z,46.4
2023-03-23T10:00:46.764Z,46.7
2023-03-23T10:01:34.245Z,46.6
2023-03-23T10:02:21.692Z,46.6
2023-03-23T10:03:09.180Z,46.7
2023-03-23T10:03:56.607Z,46.7
2023-03-23T10:04:44.034Z,46.8
2023-03-23T10:05:31.474Z,46.8
2023-03-23T10:06:18.876Z,46.8
2023-03-23T10:07:06.300Z,46.9
2023-03-23T10:07:53.692Z,47.0
2023-03-23T10:08:45.467Z,47.0
2023-03-23T10:09:38.634Z,47.2
2023-03-23T10:10:26.042Z,47.0
2023-03-23T10:11:13.464Z,46.8
2023-03-23T10:12:00.876Z,46.6
2023-03-23T10:12:48.377Z,46.5
2023-03-23T10:13:35.782Z,46.3
2023-03-23T10:14:23.193Z,46.4
2023-03-23T10:15:10.719Z,46.4
2023-03-23T10:15:58.721Z,46.2
2023-03-23T10:16:46.179Z,46.1
2023-03-23T10:17:33.826Z,46.1
2023-03-23T10:18:21.355Z,46.0
2023-03-23T10:19:08.768Z,45.3
2023-03-23T10:19:56.186Z,44.7
2023-03-23T10:20:43.593Z,44.4
2023-03-23T10:21:31.025Z,44.3
2023-03-23T10:22:18.683Z,44.2
2023-03-23T10:23:06.609Z,44.2
2023-03-23T10:23:54.033Z,44.1
2023-03-23T10:24:41.445Z,44.3
2023-03-23T10:25:28.870Z,44.4
2023-03-23T10:26:16.285Z,44.4
2023-03-23T10:27:03.905Z,44.7
2023-03-23T10:27:51.379Z,44.5
2023-03-23T10:28:39.076Z,44.5
2023-03-23T10:29:26.497Z,44.5
2023-03-23T10:30:13.910Z,44.6
2023-03-23T10:31:01.457Z,44.5
2023-03-23T10:31:49.108Z,44.5
2023-03-23T10:32:36.682Z,44.5
2023-03-23T10:33:24.095Z,44.6
2023-03-23T10:34:11.519Z,44.6
2023-03-23T10:34:59.852Z,44.5
2023-03-23T10:35:47.409Z,44.5
2023-03-23T10:36:34.867Z,44.7
2023-03-23T10:37:22.379Z,44.9
2023-03-23T10:38:09.825Z,44.8
2023-03-23T10:38:57.317Z,44.9
2023-03-23T10:39:44.838Z,44.5
2023-03-23T10:40:32.336Z,44.5
2023-03-23T10:41:19.946Z,44.4
2023-03-23T10:42:07.375Z,44.5
2023-03-23T10:42:54.841Z,44.6
2023-03-23T10:43:42.318Z,44.6
2023-03-23T10:44:29.720Z,44.5
2023-03-23T10:45:17.202Z,44.4
2023-03-23T10:46:04.883Z,44.4
2023-03-23T10:46:52.637Z,44.5
2023-03-23T10:47:40.080Z,44.5
2023-03-23T10:48:27.595Z,44.4
2023-03-23T10:49:15.291Z,44.5
2023-03-23T10:50:02.941Z,44.7
2023-03-23T10:50:50.375Z,44.5
2023-03-23T10:51:37.836Z,44.5
2023-03-23T10:52:25.442Z,44.5
2023-03-23T10:53:13.124Z,44.5
2023-03-23T10:54:00.617Z,44.6
2023-03-23T10:54:48.084Z,44.6
2023-03-23T10:55:35.607Z,44.5
2023-03-23T10:56:23.029Z,44.5
2023-03-23T10:57:10.511Z,44.6
2023-03-23T10:57:58.464Z,44.7
2023-03-23T10:58:46.794Z,44.7
2023-03-23T10:59:34.213Z,44.6
2023-03-23T11:00:21.909Z,44.7
2023-03-23T11:01:09.520Z,44.7
2023-03-23T11:01:56.967Z,44.6
2023-03-23T11:02:44.371Z,44.7
2023-03-23T11:03:31.801Z,44.7
2023-03-23T11:04:19.180Z,44.6
2023-03-23T11:05:09.607Z,44.8
2023-03-23T11:05:58.713Z,45.0
2023-03-23T11:06:46.147Z,45.0
2023-03-23T11:07:33.604Z,45.0
2023-03-23T11:08:21.405Z,45.1
2023-03-23T11:09:09.648Z,45.3
2023-03-23T11:09:57.052Z,45.2
2023-03-23T11:10:44.624Z,45.4
2023-03-23T11:11:32.065Z,45.4
2023-03-23T11:12:19.559Z,45.3
2023-03-23T11:13:07.164Z,45.3
2023-03-23T11:13:54.652Z,45.3
2023-03-23T11:14:42.184Z,45.2
2023-03-23T11:15:29.790Z,45.3
2023-03-23T11:16:17.229Z,45.3
2023-03-23T11:17:13.866Z,45.5
2023-03-23T11:18:02.060Z,45.6
2023-03-23T11:18:50.053Z,45.8
2023-03-23T11:19:37.506Z,45.8
2023-03-23T11:20:25.174Z,45.8
2023-03-23T11:21:13.733Z,45.5
2023-03-23T11:22:03.474Z,45.4
2023-03-23T11:22:50.922Z,45.4
2023-03-23T11:23:39.725Z,45.5
2023-03-23T11:24:27.809Z,45.4
2023-03-23T11:25:15.386Z,45.4
2023-03-23T11:26:06.029Z,45.5
2023-03-23T11:26:58.733Z,45.5
2023-03-23T11:27:46.568Z,45.5
2023-03-23T11:28:34.095Z,45.6
2023-03-23T11:29:22.450Z,45.6
2023-03-23T11:30:09.936Z,45.6
2023-03-23T11:30:57.390Z,45.6
2023-03-23T11:31:45.178Z,45.6
2023-03-23T11:32:32.770Z,45.6
2023-03-23T11:33:20.227Z,45.6
2023-03-23T11:34:09.292Z,45.8
2023-03-23T11:35:04.120Z,45.7
2023-03-23T11:35:54.425Z,45.6
2023-03-23T11:36:43.720Z,45.6
2023-03-23T11:37:30.988Z,45.5
2023-03-23T11:38:19.010Z,45.4
2023-03-23T11:39:06.876Z,45.4
2023-03-23T11:39:54.572Z,45.4
2023-03-23T11:40:42.018Z,45.5
2023-03-23T11:41:29.520Z,45.5
2023-03-23T11:42:16.994Z,45.5
2023-03-23T11:43:04.665Z,45.5
2023-03-23T11:43:52.087Z,45.6
2023-03-23T11:44:39.560Z,45.7
2023-03-23T11:45:27.001Z,45.6
2023-03-23T11:46:14.424Z,45.6
2023-03-23T11:47:01.838Z,45.6
2023-03-23T11:47:49.329Z,45.6
2023-03-23T11:48:36.810Z,45.6
2023-03-23T11:50:12.624Z,45.6
2023-03-23T11:51:00.322Z,45.5
2023-03-23T11:51:47.744Z,45.5
2023-03-23T11:52:35.186Z,45.5
2023-03-23T11:53:22.589Z,45.5
2023-03-23T11:54:10.037Z,45.5
2023-03-23T11:54:57.521Z,45.6
2023-03-23T11:55:45.087Z,45.6
2023-03-23T11:56:33.347Z,45.6
2023-03-23T11:57:20.856Z,45.7
2023-03-23T11:58:08.291Z,45.6
2023-03-23T11:58:55.710Z,45.6
2023-03-23T11:59:43.164Z,45.5
2023-03-23T12:00:30.752Z,45.5
2023-03-23T12:01:19.112Z,45.4
2023-03-23T12:02:16.980Z,45.4
2023-03-23T12:03:04.751Z,45.4
2023-03-23T12:03:52.159Z,45.5
2023-03-23T12:04:39.675Z,45.4
2023-03-23T12:05:27.100Z,45.3
2023-03-23T12:06:14.551Z,45.3
2023-03-23T12:07:01.971Z,45.4
2023-03-23T12:07:49.384Z,45.4
2023-03-23T12:08:37.135Z,45.5
2023-03-23T12:09:24.822Z,45.5
2023-03-23T12:10:12.229Z,45.3
2023-03-23T12:11:01.714Z,45.3
2023-03-23T12:11:49.603Z,45.2
2023-03-23T12:12:37.034Z,45.2
2023-03-23T12:13:24.717Z,45.3
2023-03-23T12:14:12.570Z,45.2
2023-03-23T12:15:00.185Z,45.2
2023-03-23T12:15:47.696Z,45.1
2023-03-23T12:16:36.691Z,45.1
2023-03-23T12:17:24.125Z,45.0
2023-03-23T12:19:07.615Z,45.0
2023-03-23T12:19:55.031Z,44.9
2023-03-23T12:21:30.598Z,45.1
2023-03-23T12:22:18.019Z,45.0
2023-03-23T12:23:05.695Z,45.0
2023-03-23T12:23:53.139Z,44.9
2023-03-23T12:24:40.989Z,44.8
2023-03-23T12:25:28.414Z,44.9
2023-03-23T12:26:16.052Z,44.9
2023-03-23T12:27:03.508Z,44.6
2023-03-23T12:27:51.234Z,44.3
2023-03-23T12:28:38.680Z,44.2
2023-03-23T12:29:26.446Z,44.3
2023-03-23T12:30:14.016Z,44.4
2023-03-23T12:31:01.813Z,44.3
2023-03-23T12:31:49.353Z,44.2
2023-03-23T12:32:36.858Z,44.2
2023-03-23T12:33:24.303Z,44.2
2023-03-23T12:34:11.787Z,44.1
2023-03-23T12:34:59.457Z,44.0
2023-03-23T12:35:47.185Z,44.1
2023-03-23T12:36:34.631Z,44.3
2023-03-23T12:37:22.225Z,44.3
2023-03-23T12:38:09.650Z,44.3
2023-03-23T12:38:57.087Z,44.3
2023-03-23T12:39:44.527Z,44.3
2023-03-23T12:40:31.995Z,44.3
2023-03-23T12:41:19.675Z,44.2
2023-03-23T12:42:07.104Z,44.1
2023-03-23T12:42:54.578Z,44.0
2023-03-23T12:43:41.986Z,43.9
2023-03-23T12:44:29.409Z,44.0
2023-03-23T12:45:16.855Z,43.9
2023-03-23T12:46:04.294Z,43.9
2023-03-23T12:46:51.743Z,43.9
2023-03-23T12:47:39.191Z,44.1
2023-03-23T12:48:26.600Z,44.1
2023-03-23T12:49:14.134Z,44.1
2023-03-23T12:50:01.549Z,44.1
2023-03-23T12:50:49.136Z,44.0
2023-03-23T12:51:36.605Z,44.1
2023-03-23T12:52:24.067Z,44.0
2023-03-23T12:53:11.492Z,44.2
2023-03-23T12:53:58.936Z,44.2
2023-03-23T12:54:46.372Z,44.2
2023-03-23T12:55:34.063Z,44.3
2023-03-23T12:56:21.763Z,44.3
2023-03-23T12:57:09.172Z,44.2
2023-03-23T12:57:56.641Z,44.3
2023-03-23T12:58:44.079Z,44.3
2023-03-23T12:59:31.482Z,44.1
2023-03-23T13:00:19.183Z,44.1
2023-03-23T13:01:06.718Z,44.0
2023-03-23T13:01:54.164Z,43.9
2023-03-23T13:02:41.660Z,43.9
2023-03-23T13:03:29.089Z,43.9
2023-03-23T13:04:16.500Z,44.5
2023-03-23T13:05:03.928Z,43.9
2023-03-23T13:05:51.590Z,44.1
2023-03-23T13:06:39.090Z,44.0
2023-03-23T13:07:26.694Z,44.1
2023-03-23T13:08:14.140Z,44.2
2023-03-23T13:09:01.611Z,44.3
2023-03-23T13:09:49.080Z,44.1
2023-03-23T13:10:36.556Z,43.9
2023-03-23T13:11:23.980Z,43.8
2023-03-23T13:12:11.527Z,43.9
2023-03-23T13:12:59.253Z,43.8
2023-03-23T13:13:54.929Z,43.9
2023-03-23T13:14:42.654Z,43.9
2023-03-23T13:15:30.076Z,43.9
2023-03-23T13:16:17.498Z,43.9
2023-03-23T13:17:04.912Z,44.0
2023-03-23T13:17:52.330Z,44.1
2023-03-23T13:18:39.882Z,44.1
2023-03-23T13:19:27.541Z,44.0
2023-03-23T13:20:14.994Z,44.1
2023-03-23T13:21:03.174Z,44.0
2023-03-23T13:21:53.012Z,43.9
2023-03-23T13:22:40.771Z,43.8
2023-03-23T13:23:28.190Z,43.7
2023-03-23T13:24:15.618Z,43.8
2023-03-23T13:25:03.128Z,43.7
2023-03-23T13:25:50.806Z,43.8
2023-03-23T13:26:38.482Z,43.9
2023-03-23T13:27:25.921Z,44.1
2023-03-23T13:28:13.505Z,44.0
2023-03-23T13:29:00.915Z,43.9
2023-03-23T13:29:48.343Z,43.9
2023-03-23T13:30:35.761Z,44.5
2023-03-23T13:31:23.202Z,44.3
2023-03-23T13:32:10.674Z,44.2
2023-03-23T13:32:58.109Z,44.1
2023-03-23T13:33:45.537Z,43.9
2023-03-23T13:34:33.000Z,43.8
2023-03-23T13:35:20.471Z,43.9
2023-03-23T13:36:13.324Z,44.0
2023-03-23T13:37:04.208Z,44.1
2023-03-23T13:37:51.639Z,44.2
2023-03-23T13:38:39.067Z,44.1
2023-03-23T13:39:26.498Z,44.1
2023-03-23T13:40:13.942Z,44.1
2023-03-23T13:41:01.581Z,44.1
2023-03-23T13:41:49.049Z,44.1
2023-03-23T13:42:36.481Z,43.9
2023-03-23T13:43:23.894Z,43.8
2023-03-23T13:44:11.305Z,43.8
2023-03-23T13:44:58.752Z,43.7
2023-03-23T13:45:46.277Z,43.6
2023-03-23T13:46:35.118Z,43.8
2023-03-23T13:47:23.399Z,43.8
2023-03-23T13:48:10.865Z,43.5
2023-03-23T13:48:59.059Z,43.2
2023-03-23T13:49:48.218Z,43.2
2023-03-23T13:50:35.756Z,43.4
2023-03-23T13:51:23.178Z,43.3
2023-03-23T13:52:11.463Z,43.3
2023-03-23T13:52:59.299Z,43.4
2023-03-23T13:53:46.766Z,43.5
2023-03-23T13:54:34.394Z,43.5
2023-03-23T13:55:21.817Z,43.3
2023-03-23T13:56:15.562Z,43.3
2023-03-23T13:57:04.792Z,43.4
2023-03-23T13:57:52.216Z,43.4
2023-03-23T13:58:39.652Z,43.3
2023-03-23T13:59:27.109Z,43.3
2023-03-23T14:00:14.528Z,43.5
2023-03-23T14:01:02.045Z,43.3
2023-03-23T14:01:49.510Z,43.1
2023-03-23T14:02:37.097Z,43.2
2023-03-23T14:03:25.199Z,43.4
2023-03-23T14:04:12.770Z,43.3
2023-03-23T14:05:00.325Z,43.2
2023-03-23T14:05:47.802Z,43.4
2023-03-23T14:06:35.341Z,43.7
2023-03-23T14:07:22.774Z,46.2
2023-03-23T14:08:10.195Z,45.9
2023-03-23T14:08:57.618Z,45.7
2023-03-23T14:09:45.048Z,45.5
2023-03-23T14:10:32.491Z,45.5
2023-03-23T14:11:21.302Z,45.1
2023-03-23T14:12:09.155Z,44.7
2023-03-23T14:12:56.592Z,44.5
2023-03-23T14:13:44.068Z,44.4
2023-03-23T14:14:31.541Z,44.4
2023-03-23T14:15:18.945Z,44.5
2023-03-23T14:16:06.404Z,44.5
2023-03-23T14:16:53.826Z,44.0
2023-03-23T14:17:41.229Z,43.3
2023-03-23T14:18:28.693Z,43.0
2023-03-23T14:19:16.149Z,42.7
2023-03-23T14:20:03.560Z,42.4
2023-03-23T14:20:50.980Z,42.2
2023-03-23T14:21:38.419Z,42.2
2023-03-23T14:22:25.925Z,42.0
2023-03-23T14:23:13.387Z,42.0
2023-03-23T14:24:00.809Z,42.5
2023-03-23T14:24:48.358Z,41.9
2023-03-23T14:25:35.824Z,42.0
2023-03-23T14:26:23.253Z,42.0
2023-03-23T14:27:10.679Z,42.0
2023-03-23T14:27:58.096Z,42.1
2023-03-23T14:28:45.511Z,42.2
2023-03-23T14:29:33.030Z,42.2
2023-03-23T14:30:20.462Z,42.4
2023-03-23T14:31:07.853Z,42.4
2023-03-23T14:31:55.273Z,42.4
2023-03-23T14:32:42.718Z,42.5
2023-03-23T14:33:30.132Z,42.4
2023-03-23T14:34:17.559Z,42.5
2023-03-23T14:35:04.987Z,42.6
2023-03-23T14:35:52.440Z,42.7
2023-03-23T14:36:40.084Z,42.7
2023-03-23T14:37:27.727Z,42.8
2023-03-23T14:38:15.156Z,43.0
2023-03-23T14:39:02.657Z,42.9
2023-03-23T14:39:50.073Z,42.9
2023-03-23T14:40:37.492Z,43.0
2023-03-23T14:41:25.111Z,42.8
2023-03-23T14:42:12.704Z,42.9
2023-03-23T14:43:00.256Z,43.0
2023-03-23T14:43:47.696Z,43.0
2023-03-23T14:44:35.156Z,43.1
2023-03-23T14:45:22.616Z,43.2
2023-03-23T14:46:10.060Z,43.1
2023-03-23T14:46:57.485Z,43.1
2023-03-23T14:47:44.917Z,43.0
2023-03-23T14:48:32.383Z,43.2
2023-03-23T14:49:19.861Z,43.3
2023-03-23T14:50:07.308Z,43.3
2023-03-23T14:50:55.436Z,43.3
2023-03-23T14:51:42.883Z,43.1
2023-03-23T14:52:30.314Z,42.8
2023-03-23T14:53:17.742Z,42.7
2023-03-23T14:54:05.398Z,42.7
2023-03-23T14:54:52.905Z,42.9
2023-03-23T14:55:40.520Z,43.0
2023-03-23T14:56:27.931Z,42.9
2023-03-23T14:57:15.367Z,42.9
2023-03-23T14:58:02.873Z,42.9
2023-03-23T14:58:50.362Z,42.9
2023-03-23T14:59:37.769Z,43.0
2023-03-23T15:00:25.191Z,43.0
2023-03-23T15:01:12.625Z,43.0
2023-03-23T15:02:00.099Z,43.2
2023-03-23T15:02:47.734Z,43.1
2023-03-23T15:03:35.349Z,43.2
2023-03-23T15:04:22.821Z,43.4
2023-03-23T15:05:10.311Z,43.3
2023-03-23T15:05:57.728Z,43.9
2023-03-23T15:06:45.290Z,43.3
2023-03-23T15:07:32.902Z,43.3
2023-03-23T15:08:20.714Z,43.3
2023-03-23T15:09:09.273Z,43.4
2023-03-23T15:09:56.738Z,43.4
2023-03-23T15:10:44.478Z,43.3
2023-03-23T15:11:32.261Z,43.4
2023-03-23T15:12:19.707Z,43.5
2023-03-23T15:13:07.136Z,43.5
2023-03-23T15:13:54.550Z,43.6
2023-03-23T15:14:41.961Z,43.3
2023-03-23T15:15:29.403Z,42.8
2023-03-23T15:16:16.818Z,42.7
2023-03-23T15:17:04.481Z,42.5
2023-03-23T15:17:51.871Z,42.5
2023-03-23T15:18:39.384Z,42.2
2023-03-23T15:19:26.820Z,42.9
2023-03-23T15:20:14.254Z,42.6
2023-03-23T15:21:01.691Z,42.7
2023-03-23T15:21:49.504Z,42.9
2023-03-23T15:22:36.933Z,43.2
2023-03-23T15:23:24.373Z,43.0
2023-03-23T15:24:11.827Z,43.1